Tuckahoe, Virginia
Current Conditions -  °F | °C
As of 8:54 PM on Wednesday 22 Oct 2014 (Local Time) from KOFP Reporting Station
Overcast Overcast  
Wind Chill: 54°   Ceiling: 12000
Heat Index: 54°   Visibility: 10mi
Dew Point: 45°   Wind: 9mph
Humidity: 72%   Direction: 320°NW
Pressure: 29.97"   Gusts: 20mph
Location:  37.5871°N, 77.5706°W
Report Text: KOFP 230054Z AUTO 32008G17KT 290V350 10SM FEW042 OVC120 12/07 A2997 RMK AO2 SLP148 T01220072
Loading
Personal Weather Stations






























Interactive Weather Map
Tropical Storm Tracking
New forecast layout! Learn more

10-Day Weather Forecast

Advertisements
Track Severe Weather on mobile